sensor_id;sensor_type;location;lat;lon;timestamp;P1;durP1;ratioP1;P2;durP2;ratioP2
14346;SDS011;7257;52.158;9.968;2022-09-21T00:00:13;3.00;;;1.65;;
14346;SDS011;7257;52.158;9.968;2022-09-21T00:00:35;2.08;;;1.70;;
14346;SDS011;7257;52.158;9.968;2022-09-21T00:01:02;2.00;;;1.80;;
14346;SDS011;7257;52.158;9.968;2022-09-21T00:01:25;2.28;;;1.60;;
14346;SDS011;7257;52.158;9.968;2022-09-21T00:01:47;3.00;;;1.70;;
14346;SDS011;7257;52.158;9.968;2022-09-21T00:02:08;3.77;;;2.00;;
14346;SDS011;7257;52.158;9.968;2022-09-21T00:02:31;2.58;;;1.92;;
14346;SDS011;7257;52.158;9.968;2022-09-21T00:02:54;3.25;;;2.22;;
14346;SDS011;7257;52.158;9.968;2022-09-21T00:03:15;3.10;;;1.90;;
14346;SDS011;7257;52.158;9.968;2022-09-21T00:03:37;3.33;;;2.22;;
14346;SDS011;7257;52.158;9.968;2022-09-21T00:04:01;2.33;;;2.00;;
14346;SDS011;7257;52.158;9.968;2022-09-21T00:04:23;2.70;;;2.08;;
14346;SDS011;7257;52.158;9.968;2022-09-21T00:04:44;2.83;;;2.30;;
14346;SDS011;7257;52.158;9.968;2022-09-21T00:05:05;2.35;;;2.15;;
14346;SDS011;7257;52.158;9.968;2022-09-21T00:05:27;2.45;;;2.25;;
14346;SDS011;7257;52.158;9.968;2022-09-21T00:05:49;2.50;;;2.30;;
14346;SDS011;7257;52.158;9.968;2022-09-21T00:06:11;3.35;;;2.20;;
14346;SDS011;7257;52.158;9.968;2022-09-21T00:06:33;3.30;;;2.08;;
14346;SDS011;7257;52.158;9.968;2022-09-21T00:06:54;2.70;;;1.95;;
14346;SDS011;7257;52.158;9.968;2022-09-21T00:07:16;2.67;;;2.13;;
14346;SDS011;7257;52.158;9.968;2022-09-21T00:07:37;2.22;;;1.85;;
14346;SDS011;7257;52.158;9.968;2022-09-21T00:07:58;1.88;;;1.70;;
14346;SDS011;7257;52.158;9.968;2022-09-21T00:08:19;1.70;;;1.60;;
14346;SDS011;7257;52.158;9.968;2022-09-21T00:08:40;1.67;;;1.57;;
14346;SDS011;7257;52.158;9.968;2022-09-21T00:09:02;2.10;;;1.80;;
14346;SDS011;7257;52.158;9.968;2022-09-21T00:09:24;3.25;;;2.30;;
14346;SDS011;7257;52.158;9.968;2022-09-21T00:09:45;4.00;;;2.45;;
14346;SDS011;7257;52.158;9.968;2022-09-21T00:10:06;4.68;;;2.85;;
14346;SDS011;7257;52.158;9.968;2022-09-21T00:10:28;3.38;;;2.55;;
14346;SDS011;7257;52.158;9.968;2022-09-21T00:10:49;2.95;;;2.20;;
14346;SDS011;7257;52.158;9.968;2022-09-21T00:11:10;2.33;;;1.75;;
14346;SDS011;7257;52.158;9.968;2022-09-21T00:11:32;2.30;;;1.63;;
14346;SDS011;7257;52.158;9.968;2022-09-21T00:11:53;3.75;;;1.90;;
14346;SDS011;7257;52.158;9.968;2022-09-21T00:12:15;4.45;;;2.20;;
14346;SDS011;7257;52.158;9.968;2022-09-21T00:12:36;4.65;;;2.25;;
14346;SDS011;7257;52.158;9.968;2022-09-21T00:12:57;4.25;;;2.13;;
14346;SDS011;7257;52.158;9.968;2022-09-21T00:13:19;4.28;;;1.80;;
14346;SDS011;7257;52.158;9.968;2022-09-21T00:13:40;3.63;;;1.38;;
14346;SDS011;7257;52.158;9.968;2022-09-21T00:14:06;2.97;;;1.50;;
14346;SDS011;7257;52.158;9.968;2022-09-21T00:14:29;3.10;;;1.92;;
14346;SDS011;7257;52.158;9.968;2022-09-21T00:14:50;3.60;;;2.30;;
14346;SDS011;7257;52.158;9.968;2022-09-21T00:15:14;4.18;;;2.67;;
14346;SDS011;7257;52.158;9.968;2022-09-21T00:15:38;4.70;;;2.38;;
14346;SDS011;7257;52.158;9.968;2022-09-21T00:16:00;4.82;;;2.10;;
14346;SDS011;7257;52.158;9.968;2022-09-21T00:16:23;3.92;;;1.92;;
14346;SDS011;7257;52.158;9.968;2022-09-21T00:16:45;3.35;;;2.13;;
14346;SDS011;7257;52.158;9.968;2022-09-21T00:17:06;2.90;;;2.20;;
14346;SDS011;7257;52.158;9.968;2022-09-21T00:17:28;5.57;;;2.33;;
14346;SDS011;7257;52.158;9.968;2022-09-21T00:17:51;5.72;;;2.60;;
14346;SDS011;7257;52.158;9.968;2022-09-21T00:18:13;5.63;;;2.45;;
14346;SDS011;7257;52.158;9.968;2022-09-21T00:18:35;2.92;;;2.03;;
14346;SDS011;7257;52.158;9.968;2022-09-21T00:18:56;3.45;;;2.08;;
14346;SDS011;7257;52.158;9.968;2022-09-21T00:19:17;4.10;;;2.00;;
14346;SDS011;7257;52.158;9.968;2022-09-21T00:19:39;4.03;;;1.90;;
14346;SDS011;7257;52.158;9.968;2022-09-21T00:20:01;3.30;;;1.75;;
14346;SDS011;7257;52.158;9.968;2022-09-21T00:20:24;3.10;;;1.73;;
14346;SDS011;7257;52.158;9.968;2022-09-21T00:20:46;2.50;;;1.90;;
14346;SDS011;7257;52.158;9.968;2022-09-21T00:21:08;2.63;;;2.10;;
14346;SDS011;7257;52.158;9.968;2022-09-21T00:21:33;2.45;;;2.00;;
14346;SDS011;7257;52.158;9.968;2022-09-21T00:21:55;2.97;;;2.00;;
14346;SDS011;7257;52.158;9.968;2022-09-21T00:22:16;4.07;;;2.40;;
14346;SDS011;7257;52.158;9.968;2022-09-21T00:22:37;4.43;;;2.77;;
14346;SDS011;7257;52.158;9.968;2022-09-21T00:22:59;5.03;;;3.30;;
14346;SDS011;7257;52.158;9.968;2022-09-21T00:23:19;3.45;;;2.97;;
14346;SDS011;7257;52.158;9.968;2022-09-21T00:23:40;2.88;;;2.53;;
14346;SDS011;7257;52.158;9.968;2022-09-21T00:24:02;2.70;;;1.98;;
14346;SDS011;7257;52.158;9.968;2022-09-21T00:24:24;2.97;;;2.00;;
14346;SDS011;7257;52.158;9.968;2022-09-21T00:24:45;4.05;;;1.95;;
14346;SDS011;7257;52.158;9.968;2022-09-21T00:25:06;3.47;;;1.73;;
14346;SDS011;7257;52.158;9.968;2022-09-21T00:25:27;3.47;;;1.83;;
14346;SDS011;7257;52.158;9.968;2022-09-21T00:25:48;4.03;;;2.22;;
14346;SDS011;7257;52.158;9.968;2022-09-21T00:26:11;4.57;;;2.53;;
14346;SDS011;7257;52.158;9.968;2022-09-21T00:26:33;3.78;;;2.50;;
14346;SDS011;7257;52.158;9.968;2022-09-21T00:26:54;4.07;;;2.47;;
14346;SDS011;7257;52.158;9.968;2022-09-21T00:27:16;4.25;;;2.58;;
14346;SDS011;7257;52.158;9.968;2022-09-21T00:27:37;4.40;;;2.70;;
14346;SDS011;7257;52.158;9.968;2022-09-21T00:27:57;3.30;;;2.67;;
14346;SDS011;7257;52.158;9.968;2022-09-21T00:28:18;3.05;;;2.83;;
14346;SDS011;7257;52.158;9.968;2022-09-21T00:28:39;3.07;;;2.83;;
14346;SDS011;7257;52.158;9.968;2022-09-21T00:29:03;2.90;;;2.60;;
14346;SDS011;7257;52.158;9.968;2022-09-21T00:29:24;2.42;;;2.15;;
14346;SDS011;7257;52.158;9.968;2022-09-21T00:29:45;3.60;;;2.70;;
14346;SDS011;7257;52.158;9.968;2022-09-21T00:30:08;3.45;;;2.95;;
14346;SDS011;7257;52.158;9.968;2022-09-21T00:30:31;3.08;;;2.45;;
14346;SDS011;7257;52.158;9.968;2022-09-21T00:30:52;1.95;;;1.70;;
14346;SDS011;7257;52.158;9.968;2022-09-21T00:31:14;2.00;;;1.73;;
14346;SDS011;7257;52.158;9.968;2022-09-21T00:31:37;2.10;;;1.90;;
14346;SDS011;7257;52.158;9.968;2022-09-21T00:31:57;2.65;;;2.30;;
14346;SDS011;7257;52.158;9.968;2022-09-21T00:32:18;3.60;;;2.50;;
14346;SDS011;7257;52.158;9.968;2022-09-21T00:32:39;4.75;;;2.53;;
14346;SDS011;7257;52.158;9.968;2022-09-21T00:33:01;5.22;;;2.35;;
14346;SDS011;7257;52.158;9.968;2022-09-21T00:33:22;4.22;;;1.90;;
14346;SDS011;7257;52.158;9.968;2022-09-21T00:33:44;3.22;;;1.58;;
14346;SDS011;7257;52.158;9.968;2022-09-21T00:34:05;3.33;;;1.70;;
14346;SDS011;7257;52.158;9.968;2022-09-21T00:34:27;3.42;;;1.92;;
14346;SDS011;7257;52.158;9.968;2022-09-21T00:34:47;5.20;;;2.57;;
14346;SDS011;7257;52.158;9.968;2022-09-21T00:35:08;5.65;;;2.90;;
14346;SDS011;7257;52.158;9.968;2022-09-21T00:35:29;5.80;;;3.13;;
14346;SDS011;7257;52.158;9.968;2022-09-21T00:35:50;4.07;;;2.88;;
14346;SDS011;7257;52.158;9.968;2022-09-21T00:36:13;2.80;;;2.60;;
14346;SDS011;7257;52.158;9.968;2022-09-21T00:36:36;2.92;;;2.63;;
14346;SDS011;7257;52.158;9.968;2022-09-21T00:36:57;3.10;;;2.33;;
14346;SDS011;7257;52.158;9.968;2022-09-21T00:37:18;3.70;;;2.38;;
14346;SDS011;7257;52.158;9.968;2022-09-21T00:37:40;3.17;;;2.17;;
14346;SDS011;7257;52.158;9.968;2022-09-21T00:38:01;4.20;;;2.05;;
14346;SDS011;7257;52.158;9.968;2022-09-21T00:38:22;3.88;;;2.08;;
14346;SDS011;7257;52.158;9.968;2022-09-21T00:38:43;3.70;;;2.10;;
14346;SDS011;7257;52.158;9.968;2022-09-21T00:39:08;3.28;;;2.45;;
14346;SDS011;7257;52.158;9.968;2022-09-21T00:39:30;3.00;;;2.42;;
14346;SDS011;7257;52.158;9.968;2022-09-21T00:39:50;2.85;;;2.25;;
14346;SDS011;7257;52.158;9.968;2022-09-21T00:40:11;2.42;;;2.22;;
14346;SDS011;7257;52.158;9.968;2022-09-21T00:40:32;2.78;;;2.55;;
14346;SDS011;7257;52.158;9.968;2022-09-21T00:40:53;3.20;;;2.75;;
14346;SDS011;7257;52.158;9.968;2022-09-21T00:41:14;3.17;;;2.88;;
14346;SDS011;7257;52.158;9.968;2022-09-21T00:41:36;3.05;;;2.75;;
14346;SDS011;7257;52.158;9.968;2022-09-21T00:41:57;2.70;;;2.50;;
14346;SDS011;7257;52.158;9.968;2022-09-21T00:42:18;2.20;;;2.00;;
14346;SDS011;7257;52.158;9.968;2022-09-21T00:42:41;2.25;;;2.05;;
14346;SDS011;7257;52.158;9.968;2022-09-21T00:43:12;2.53;;;2.33;;
14346;SDS011;7257;52.158;9.968;2022-09-21T00:43:36;2.10;;;1.90;;
14346;SDS011;7257;52.158;9.968;2022-09-21T00:44:17;2.60;;;1.80;;
14346;SDS011;7257;52.158;9.968;2022-09-21T00:44:46;3.58;;;2.10;;
14346;SDS011;7257;52.158;9.968;2022-09-21T00:45:09;3.80;;;2.30;;
14346;SDS011;7257;52.158;9.968;2022-09-21T00:45:41;3.80;;;2.45;;
14346;SDS011;7257;52.158;9.968;2022-09-21T00:46:05;3.88;;;2.50;;
14346;SDS011;7257;52.158;9.968;2022-09-21T00:46:32;2.65;;;2.10;;
14346;SDS011;7257;52.158;9.968;2022-09-21T00:46:55;3.13;;;2.10;;
14346;SDS011;7257;52.158;9.968;2022-09-21T00:47:21;3.50;;;2.40;;
14346;SDS011;7257;52.158;9.968;2022-09-21T00:47:44;3.40;;;2.20;;
14346;SDS011;7257;52.158;9.968;2022-09-21T00:48:06;2.47;;;2.13;;
14346;SDS011;7257;52.158;9.968;2022-09-21T00:48:28;2.90;;;2.50;;
14346;SDS011;7257;52.158;9.968;2022-09-21T00:48:51;2.75;;;2.45;;
14346;SDS011;7257;52.158;9.968;2022-09-21T00:49:13;2.88;;;2.58;;
14346;SDS011;7257;52.158;9.968;2022-09-21T00:49:34;2.67;;;2.45;;
14346;SDS011;7257;52.158;9.968;2022-09-21T00:49:56;2.58;;;2.35;;
14346;SDS011;7257;52.158;9.968;2022-09-21T00:50:21;2.17;;;1.98;;
14346;SDS011;7257;52.158;9.968;2022-09-21T00:50:46;2.80;;;2.20;;
14346;SDS011;7257;52.158;9.968;2022-09-21T00:51:11;2.90;;;2.20;;
14346;SDS011;7257;52.158;9.968;2022-09-21T00:51:32;2.55;;;2.05;;
14346;SDS011;7257;52.158;9.968;2022-09-21T00:51:55;2.20;;;2.00;;
14346;SDS011;7257;52.158;9.968;2022-09-21T00:52:18;3.28;;;2.47;;
14346;SDS011;7257;52.158;9.968;2022-09-21T00:52:42;3.25;;;2.30;;
14346;SDS011;7257;52.158;9.968;2022-09-21T00:53:07;2.38;;;2.17;;
14346;SDS011;7257;52.158;9.968;2022-09-21T00:53:28;2.40;;;2.20;;
14346;SDS011;7257;52.158;9.968;2022-09-21T00:53:56;2.45;;;2.15;;
14346;SDS011;7257;52.158;9.968;2022-09-21T00:54:23;2.42;;;2.20;;
14346;SDS011;7257;52.158;9.968;2022-09-21T00:54:48;2.75;;;2.20;;
14346;SDS011;7257;52.158;9.968;2022-09-21T00:55:14;2.92;;;1.90;;
14346;SDS011;7257;52.158;9.968;2022-09-21T00:55:39;3.05;;;2.10;;
14346;SDS011;7257;52.158;9.968;2022-09-21T00:56:02;3.40;;;2.20;;
14346;SDS011;7257;52.158;9.968;2022-09-21T00:56:26;5.03;;;2.40;;
14346;SDS011;7257;52.158;9.968;2022-09-21T00:56:48;4.15;;;2.10;;
14346;SDS011;7257;52.158;9.968;2022-09-21T00:57:10;4.72;;;2.03;;
14346;SDS011;7257;52.158;9.968;2022-09-21T00:57:31;3.10;;;1.80;;
14346;SDS011;7257;52.158;9.968;2022-09-21T00:57:56;3.05;;;1.92;;
14346;SDS011;7257;52.158;9.968;2022-09-21T00:58:21;2.90;;;2.25;;
14346;SDS011;7257;52.158;9.968;2022-09-21T00:58:47;3.25;;;2.20;;
14346;SDS011;7257;52.158;9.968;2022-09-21T00:59:11;3.50;;;1.92;;
14346;SDS011;7257;52.158;9.968;2022-09-21T00:59:35;3.67;;;2.10;;
14346;SDS011;7257;52.158;9.968;2022-09-21T01:00:00;2.80;;;2.00;;
14346;SDS011;7257;52.158;9.968;2022-09-21T01:00:22;2.00;;;1.70;;
14346;SDS011;7257;52.158;9.968;2022-09-21T01:00:45;2.25;;;2.05;;
14346;SDS011;7257;52.158;9.968;2022-09-21T01:01:06;2.50;;;1.90;;
14346;SDS011;7257;52.158;9.968;2022-09-21T01:01:28;2.53;;;1.90;;
14346;SDS011;7257;52.158;9.968;2022-09-21T01:01:50;2.72;;;1.70;;
14346;SDS011;7257;52.158;9.968;2022-09-21T01:02:12;2.60;;;1.90;;
14346;SDS011;7257;52.158;9.968;2022-09-21T01:02:34;4.85;;;2.40;;
14346;SDS011;7257;52.158;9.968;2022-09-21T01:02:56;5.53;;;2.72;;
14346;SDS011;7257;52.158;9.968;2022-09-21T01:03:20;5.38;;;2.38;;
14346;SDS011;7257;52.158;9.968;2022-09-21T01:03:42;3.50;;;2.65;;
14346;SDS011;7257;52.158;9.968;2022-09-21T01:04:04;3.80;;;2.85;;
14346;SDS011;7257;52.158;9.968;2022-09-21T01:04:26;3.67;;;2.70;;
14346;SDS011;7257;52.158;9.968;2022-09-21T01:04:47;3.28;;;2.47;;
14346;SDS011;7257;52.158;9.968;2022-09-21T01:05:12;2.80;;;2.30;;
14346;SDS011;7257;52.158;9.968;2022-09-21T01:05:33;2.53;;;1.90;;
14346;SDS011;7257;52.158;9.968;2022-09-21T01:05:54;3.42;;;2.25;;
14346;SDS011;7257;52.158;9.968;2022-09-21T01:06:16;3.50;;;2.50;;
14346;SDS011;7257;52.158;9.968;2022-09-21T01:06:39;4.13;;;2.70;;
14346;SDS011;7257;52.158;9.968;2022-09-21T01:07:02;3.40;;;2.65;;
14346;SDS011;7257;52.158;9.968;2022-09-21T01:07:28;2.75;;;2.13;;
14346;SDS011;7257;52.158;9.968;2022-09-21T01:07:51;3.67;;;2.20;;
14346;SDS011;7257;52.158;9.968;2022-09-21T01:08:13;4.03;;;2.20;;
14346;SDS011;7257;52.158;9.968;2022-09-21T01:08:36;3.90;;;2.30;;
14346;SDS011;7257;52.158;9.968;2022-09-21T01:08:58;2.58;;;2.00;;
14346;SDS011;7257;52.158;9.968;2022-09-21T01:09:20;3.83;;;1.92;;
14346;SDS011;7257;52.158;9.968;2022-09-21T01:09:42;4.03;;;2.42;;
14346;SDS011;7257;52.158;9.968;2022-09-21T01:10:06;4.32;;;2.28;;
14346;SDS011;7257;52.158;9.968;2022-09-21T01:10:34;3.17;;;2.47;;
14346;SDS011;7257;52.158;9.968;2022-09-21T01:11:10;3.80;;;2.28;;
14346;SDS011;7257;52.158;9.968;2022-09-21T01:11:43;4.10;;;2.00;;
14346;SDS011;7257;52.158;9.968;2022-09-21T01:12:24;4.05;;;2.28;;
14346;SDS011;7257;52.158;9.968;2022-09-21T01:12:57;3.10;;;2.22;;
14346;SDS011;7257;52.158;9.968;2022-09-21T01:13:30;3.13;;;2.03;;
14346;SDS011;7257;52.158;9.968;2022-09-21T01:14:10;3.33;;;2.70;;
14346;SDS011;7257;52.158;9.968;2022-09-21T01:14:52;2.55;;;2.03;;
14346;SDS011;7257;52.158;9.968;2022-09-21T01:15:27;3.45;;;2.65;;
14346;SDS011;7257;52.158;9.968;2022-09-21T01:16:00;3.92;;;2.67;;
14346;SDS011;7257;52.158;9.968;2022-09-21T01:16:27;4.03;;;2.50;;
14346;SDS011;7257;52.158;9.968;2022-09-21T01:16:55;3.67;;;2.28;;
14346;SDS011;7257;52.158;9.968;2022-09-21T01:17:23;3.17;;;2.50;;
14346;SDS011;7257;52.158;9.968;2022-09-21T01:17:58;4.40;;;2.33;;
14346;SDS011;7257;52.158;9.968;2022-09-21T01:18:25;4.50;;;2.10;;
14346;SDS011;7257;52.158;9.968;2022-09-21T01:18:53;4.43;;;2.33;;
14346;SDS011;7257;52.158;9.968;2022-09-21T01:19:24;3.05;;;2.60;;
14346;SDS011;7257;52.158;9.968;2022-09-21T01:20:04;3.38;;;2.40;;
14346;SDS011;7257;52.158;9.968;2022-09-21T01:20:45;2.90;;;2.50;;
14346;SDS011;7257;52.158;9.968;2022-09-21T01:21:34;2.80;;;2.30;;
14346;SDS011;7257;52.158;9.968;2022-09-21T01:22:02;2.95;;;2.58;;
14346;SDS011;7257;52.158;9.968;2022-09-21T01:22:32;3.88;;;2.67;;
14346;SDS011;7257;52.158;9.968;2022-09-21T01:23:11;6.35;;;2.58;;
14346;SDS011;7257;52.158;9.968;2022-09-21T01:24:32;3.60;;;2.28;;
14346;SDS011;7257;52.158;9.968;2022-09-21T01:25:05;5.35;;;2.60;;
14346;SDS011;7257;52.158;9.968;2022-09-21T01:25:37;5.20;;;2.35;;
14346;SDS011;7257;52.158;9.968;2022-09-21T01:26:09;2.40;;;2.10;;
14346;SDS011;7257;52.158;9.968;2022-09-21T01:26:44;2.78;;;1.65;;
14346;SDS011;7257;52.158;9.968;2022-09-21T01:27:32;2.38;;;2.03;;
14346;SDS011;7257;52.158;9.968;2022-09-21T01:28:07;3.40;;;2.70;;
14346;SDS011;7257;52.158;9.968;2022-09-21T01:29:40;2.30;;;1.95;;
14346;SDS011;7257;52.158;9.968;2022-09-21T01:30:04;3.20;;;2.70;;
14346;SDS011;7257;52.158;9.968;2022-09-21T01:30:28;3.30;;;2.53;;
14346;SDS011;7257;52.158;9.968;2022-09-21T01:30:51;2.50;;;2.13;;
14346;SDS011;7257;52.158;9.968;2022-09-21T01:31:15;2.88;;;2.20;;
14346;SDS011;7257;52.158;9.968;2022-09-21T01:31:43;4.25;;;2.50;;
14346;SDS011;7257;52.158;9.968;2022-09-21T01:32:10;3.70;;;2.00;;
14346;SDS011;7257;52.158;9.968;2022-09-21T01:32:36;3.03;;;1.65;;
14346;SDS011;7257;52.158;9.968;2022-09-21T01:33:02;2.40;;;1.73;;
14346;SDS011;7257;52.158;9.968;2022-09-21T01:33:28;2.40;;;1.67;;
14346;SDS011;7257;52.158;9.968;2022-09-21T01:33:54;2.20;;;1.90;;
14346;SDS011;7257;52.158;9.968;2022-09-21T01:34:22;2.83;;;2.17;;
14346;SDS011;7257;52.158;9.968;2022-09-21T01:34:50;3.13;;;2.05;;
14346;SDS011;7257;52.158;9.968;2022-09-21T01:35:13;2.92;;;2.30;;
14346;SDS011;7257;52.158;9.968;2022-09-21T01:35:40;3.05;;;2.20;;
14346;SDS011;7257;52.158;9.968;2022-09-21T01:36:07;2.28;;;1.60;;
14346;SDS011;7257;52.158;9.968;2022-09-21T01:36:32;3.22;;;1.60;;
14346;SDS011;7257;52.158;9.968;2022-09-21T01:36:56;3.40;;;1.80;;
14346;SDS011;7257;52.158;9.968;2022-09-21T01:37:20;3.38;;;2.10;;
14346;SDS011;7257;52.158;9.968;2022-09-21T01:37:46;3.20;;;2.53;;
14346;SDS011;7257;52.158;9.968;2022-09-21T01:38:12;4.40;;;2.50;;
14346;SDS011;7257;52.158;9.968;2022-09-21T01:38:37;4.18;;;2.45;;
14346;SDS011;7257;52.158;9.968;2022-09-21T01:39:05;3.50;;;2.15;;
14346;SDS011;7257;52.158;9.968;2022-09-21T01:39:30;3.53;;;2.00;;
14346;SDS011;7257;52.158;9.968;2022-09-21T01:39:54;2.35;;;1.90;;
14346;SDS011;7257;52.158;9.968;2022-09-21T01:40:20;2.40;;;2.20;;
14346;SDS011;7257;52.158;9.968;2022-09-21T01:40:46;2.30;;;2.10;;
14346;SDS011;7257;52.158;9.968;2022-09-21T01:41:11;2.15;;;1.80;;
14346;SDS011;7257;52.158;9.968;2022-09-21T01:41:34;2.95;;;2.20;;
14346;SDS011;7257;52.158;9.968;2022-09-21T01:41:58;4.20;;;2.60;;
14346;SDS011;7257;52.158;9.968;2022-09-21T01:42:21;4.20;;;2.47;;
14346;SDS011;7257;52.158;9.968;2022-09-21T01:42:45;3.55;;;2.33;;
14346;SDS011;7257;52.158;9.968;2022-09-21T01:43:10;2.40;;;2.10;;
14346;SDS011;7257;52.158;9.968;2022-09-21T01:43:35;2.50;;;2.10;;
14346;SDS011;7257;52.158;9.968;2022-09-21T01:44:02;2.88;;;2.38;;
14346;SDS011;7257;52.158;9.968;2022-09-21T01:44:28;3.83;;;2.40;;
14346;SDS011;7257;52.158;9.968;2022-09-21T01:44:52;4.50;;;2.20;;
14346;SDS011;7257;52.158;9.968;2022-09-21T01:45:16;4.05;;;2.20;;
14346;SDS011;7257;52.158;9.968;2022-09-21T01:45:44;2.80;;;2.47;;
14346;SDS011;7257;52.158;9.968;2022-09-21T01:46:09;2.97;;;2.28;;
14346;SDS011;7257;52.158;9.968;2022-09-21T01:46:34;3.50;;;2.20;;
14346;SDS011;7257;52.158;9.968;2022-09-21T01:46:56;3.60;;;2.20;;
14346;SDS011;7257;52.158;9.968;2022-09-21T01:47:20;2.20;;;2.00;;
14346;SDS011;7257;52.158;9.968;2022-09-21T01:47:41;3.08;;;2.08;;
14346;SDS011;7257;52.158;9.968;2022-09-21T01:48:05;2.95;;;2.10;;
14346;SDS011;7257;52.158;9.968;2022-09-21T01:48:27;3.08;;;2.45;;
14346;SDS011;7257;52.158;9.968;2022-09-21T01:48:55;2.75;;;2.42;;
14346;SDS011;7257;52.158;9.968;2022-09-21T01:49:20;2.70;;;1.90;;
14346;SDS011;7257;52.158;9.968;2022-09-21T01:49:45;3.30;;;2.15;;
14346;SDS011;7257;52.158;9.968;2022-09-21T01:50:10;2.85;;;2.47;;
14346;SDS011;7257;52.158;9.968;2022-09-21T01:50:33;4.00;;;2.58;;
14346;SDS011;7257;52.158;9.968;2022-09-21T01:50:57;3.70;;;2.20;;
14346;SDS011;7257;52.158;9.968;2022-09-21T01:51:22;2.20;;;1.98;;
14346;SDS011;7257;52.158;9.968;2022-09-21T01:51:49;2.92;;;2.47;;
14346;SDS011;7257;52.158;9.968;2022-09-21T01:52:17;3.03;;;2.35;;
14346;SDS011;7257;52.158;9.968;2022-09-21T01:52:43;2.60;;;2.10;;
14346;SDS011;7257;52.158;9.968;2022-09-21T01:53:11;2.67;;;2.20;;
14346;SDS011;7257;52.158;9.968;2022-09-21T01:53:38;2.70;;;2.25;;
14346;SDS011;7257;52.158;9.968;2022-09-21T01:54:03;2.90;;;2.50;;
14346;SDS011;7257;52.158;9.968;2022-09-21T01:54:29;2.97;;;2.40;;
14346;SDS011;7257;52.158;9.968;2022-09-21T01:54:56;3.20;;;1.80;;
14346;SDS011;7257;52.158;9.968;2022-09-21T01:55:21;3.42;;;2.33;;
14346;SDS011;7257;52.158;9.968;2022-09-21T01:55:47;5.55;;;2.83;;
14346;SDS011;7257;52.158;9.968;2022-09-21T01:56:12;5.60;;;2.90;;
14346;SDS011;7257;52.158;9.968;2022-09-21T01:56:39;3.75;;;2.75;;
14346;SDS011;7257;52.158;9.968;2022-09-21T01:57:05;3.17;;;2.30;;
14346;SDS011;7257;52.158;9.968;2022-09-21T01:57:30;3.20;;;2.50;;
14346;SDS011;7257;52.158;9.968;2022-09-21T01:57:59;2.65;;;2.42;;
14346;SDS011;7257;52.158;9.968;2022-09-21T01:58:26;3.67;;;2.40;;
14346;SDS011;7257;52.158;9.968;2022-09-21T01:58:54;4.10;;;2.80;;
14346;SDS011;7257;52.158;9.968;2022-09-21T01:59:24;3.65;;;2.60;;
14346;SDS011;7257;52.158;9.968;2022-09-21T01:59:53;4.00;;;2.80;;
14346;SDS011;7257;52.158;9.968;2022-09-21T02:00:16;4.32;;;2.70;;
14346;SDS011;7257;52.158;9.968;2022-09-21T02:00:37;4.20;;;2.60;;
14346;SDS011;7257;52.158;9.968;2022-09-21T02:00:59;4.72;;;3.05;;
14346;SDS011;7257;52.158;9.968;2022-09-21T02:01:23;4.28;;;3.17;;
14346;SDS011;7257;52.158;9.968;2022-09-21T02:01:49;3.85;;;3.00;;
14346;SDS011;7257;52.158;9.968;2022-09-21T02:02:15;2.28;;;2.08;;
14346;SDS011;7257;52.158;9.968;2022-09-21T02:02:40;2.30;;;2.10;;
14346;SDS011;7257;52.158;9.968;2022-09-21T02:03:08;3.50;;;2.70;;
14346;SDS011;7257;52.158;9.968;2022-09-21T02:03:35;3.60;;;2.92;;
14346;SDS011;7257;52.158;9.968;2022-09-21T02:03:59;2.92;;;2.63;;
14346;SDS011;7257;52.158;9.968;2022-09-21T02:04:24;3.80;;;2.35;;
14346;SDS011;7257;52.158;9.968;2022-09-21T02:04:45;3.90;;;2.40;;
14346;SDS011;7257;52.158;9.968;2022-09-21T02:05:07;3.65;;;2.45;;
14346;SDS011;7257;52.158;9.968;2022-09-21T02:05:30;4.13;;;3.03;;
14346;SDS011;7257;52.158;9.968;2022-09-21T02:05:51;3.53;;;2.80;;
14346;SDS011;7257;52.158;9.968;2022-09-21T02:06:12;3.03;;;2.78;;
14346;SDS011;7257;52.158;9.968;2022-09-21T02:06:37;3.40;;;3.10;;
14346;SDS011;7257;52.158;9.968;2022-09-21T02:07:00;3.40;;;3.10;;
14346;SDS011;7257;52.158;9.968;2022-09-21T02:07:21;3.35;;;2.78;;
14346;SDS011;7257;52.158;9.968;2022-09-21T02:07:44;3.38;;;2.70;;
14346;SDS011;7257;52.158;9.968;2022-09-21T02:08:07;2.85;;;2.60;;
14346;SDS011;7257;52.158;9.968;2022-09-21T02:08:29;4.53;;;2.50;;
14346;SDS011;7257;52.158;9.968;2022-09-21T02:08:51;5.75;;;2.72;;
14346;SDS011;7257;52.158;9.968;2022-09-21T02:09:12;5.57;;;2.63;;
14346;SDS011;7257;52.158;9.968;2022-09-21T02:09:34;3.85;;;2.90;;
14346;SDS011;7257;52.158;9.968;2022-09-21T02:09:56;2.78;;;2.50;;
14346;SDS011;7257;52.158;9.968;2022-09-21T02:10:17;2.97;;;2.28;;
14346;SDS011;7257;52.158;9.968;2022-09-21T02:10:44;2.90;;;2.50;;
14346;SDS011;7257;52.158;9.968;2022-09-21T02:11:08;2.88;;;2.60;;
14346;SDS011;7257;52.158;9.968;2022-09-21T02:11:31;2.47;;;2.10;;
14346;SDS011;7257;52.158;9.968;2022-09-21T02:11:52;3.20;;;2.00;;
14346;SDS011;7257;52.158;9.968;2022-09-21T02:12:13;4.13;;;2.28;;
14346;SDS011;7257;52.158;9.968;2022-09-21T02:12:34;4.18;;;2.50;;
14346;SDS011;7257;52.158;9.968;2022-09-21T02:12:57;3.45;;;2.58;;
14346;SDS011;7257;52.158;9.968;2022-09-21T02:13:21;4.28;;;2.83;;
14346;SDS011;7257;52.158;9.968;2022-09-21T02:13:47;5.30;;;3.00;;
14346;SDS011;7257;52.158;9.968;2022-09-21T02:14:12;5.25;;;2.80;;
14346;SDS011;7257;52.158;9.968;2022-09-21T02:14:37;3.58;;;2.92;;
14346;SDS011;7257;52.158;9.968;2022-09-21T02:15:00;4.00;;;2.65;;
14346;SDS011;7257;52.158;9.968;2022-09-21T02:15:22;5.43;;;2.42;;
14346;SDS011;7257;52.158;9.968;2022-09-21T02:15:54;5.25;;;2.80;;
14346;SDS011;7257;52.158;9.968;2022-09-21T02:16:29;4.72;;;2.42;;
14346;SDS011;7257;52.158;9.968;2022-09-21T02:16:56;3.90;;;2.13;;
14346;SDS011;7257;52.158;9.968;2022-09-21T02:17:30;2.70;;;2.38;;
14346;SDS011;7257;52.158;9.968;2022-09-21T02:17:57;3.20;;;2.13;;
14346;SDS011;7257;52.158;9.968;2022-09-21T02:18:28;2.88;;;2.00;;
14346;SDS011;7257;52.158;9.968;2022-09-21T02:19:02;3.65;;;2.40;;
14346;SDS011;7257;52.158;9.968;2022-09-21T02:19:33;2.92;;;2.00;;
14346;SDS011;7257;52.158;9.968;2022-09-21T02:20:05;2.83;;;2.10;;
14346;SDS011;7257;52.158;9.968;2022-09-21T02:20:35;3.53;;;3.08;;
14346;SDS011;7257;52.158;9.968;2022-09-21T02:21:02;3.30;;;3.00;;
14346;SDS011;7257;52.158;9.968;2022-09-21T02:21:31;2.55;;;2.35;;
14346;SDS011;7257;52.158;9.968;2022-09-21T02:22:01;2.40;;;2.20;;
14346;SDS011;7257;52.158;9.968;2022-09-21T02:22:27;2.60;;;2.40;;
14346;SDS011;7257;52.158;9.968;2022-09-21T02:22:56;3.90;;;2.45;;
14346;SDS011;7257;52.158;9.968;2022-09-21T02:23:24;4.25;;;2.80;;
14346;SDS011;7257;52.158;9.968;2022-09-21T02:23:53;3.70;;;2.60;;
14346;SDS011;7257;52.158;9.968;2022-09-21T02:24:28;3.38;;;2.47;;
14346;SDS011;7257;52.158;9.968;2022-09-21T02:24:55;3.70;;;2.40;;
14346;SDS011;7257;52.158;9.968;2022-09-21T02:25:24;4.15;;;2.47;;
14346;SDS011;7257;52.158;9.968;2022-09-21T02:25:54;3.95;;;3.10;;
14346;SDS011;7257;52.158;9.968;2022-09-21T02:26:23;3.63;;;3.13;;
14346;SDS011;7257;52.158;9.968;2022-09-21T02:26:49;3.58;;;2.70;;
14346;SDS011;7257;52.158;9.968;2022-09-21T02:27:18;2.90;;;2.10;;
14346;SDS011;7257;52.158;9.968;2022-09-21T02:27:52;2.45;;;2.22;;
14346;SDS011;7257;52.158;9.968;2022-09-21T02:28:17;2.90;;;2.60;;
14346;SDS011;7257;52.158;9.968;2022-09-21T02:28:47;2.75;;;2.40;;
14346;SDS011;7257;52.158;9.968;2022-09-21T02:29:13;3.25;;;2.17;;
14346;SDS011;7257;52.158;9.968;2022-09-21T02:29:49;4.38;;;2.15;;
14346;SDS011;7257;52.158;9.968;2022-09-21T02:30:16;3.50;;;2.10;;
14346;SDS011;7257;52.158;9.968;2022-09-21T02:30:39;3.03;;;2.38;;
14346;SDS011;7257;52.158;9.968;2022-09-21T02:31:10;4.80;;;2.97;;
14346;SDS011;7257;52.158;9.968;2022-09-21T02:31:37;4.53;;;2.97;;
14346;SDS011;7257;52.158;9.968;2022-09-21T02:32:02;5.20;;;2.35;;
14346;SDS011;7257;52.158;9.968;2022-09-21T02:32:27;4.45;;;2.30;;
14346;SDS011;7257;52.158;9.968;2022-09-21T02:32:56;3.80;;;2.47;;
14346;SDS011;7257;52.158;9.968;2022-09-21T02:33:23;4.20;;;2.97;;
14346;SDS011;7257;52.158;9.968;2022-09-21T02:33:52;3.17;;;2.88;;